sensor_id;sensor_type;location;lat;lon;timestamp;P1;durP1;ratioP1;P2;durP2;ratioP2
11203;SDS011;5659;49.408;11.116;2023-02-15T00:01:36;44.73;;;20.30;;
11203;SDS011;5659;49.408;11.116;2023-02-15T00:04:03;37.33;;;20.97;;
11203;SDS011;5659;49.408;11.116;2023-02-15T00:06:29;33.33;;;21.00;;
11203;SDS011;5659;49.408;11.116;2023-02-15T00:08:55;44.77;;;20.17;;
11203;SDS011;5659;49.408;11.116;2023-02-15T00:11:22;38.07;;;22.10;;
11203;SDS011;5659;49.408;11.116;2023-02-15T00:14:15;37.50;;;19.93;;
11203;SDS011;5659;49.408;11.116;2023-02-15T00:16:41;33.80;;;19.97;;
11203;SDS011;5659;49.408;11.116;2023-02-15T00:19:08;43.63;;;19.93;;
11203;SDS011;5659;49.408;11.116;2023-02-15T00:21:35;34.80;;;20.13;;
11203;SDS011;5659;49.408;11.116;2023-02-15T00:24:01;35.60;;;19.30;;
11203;SDS011;5659;49.408;11.116;2023-02-15T00:26:28;35.57;;;20.93;;
11203;SDS011;5659;49.408;11.116;2023-02-15T00:28:54;36.33;;;21.43;;
11203;SDS011;5659;49.408;11.116;2023-02-15T00:31:21;36.37;;;20.23;;
11203;SDS011;5659;49.408;11.116;2023-02-15T00:33:47;30.20;;;20.00;;
11203;SDS011;5659;49.408;11.116;2023-02-15T00:36:13;35.00;;;20.33;;
11203;SDS011;5659;49.408;11.116;2023-02-15T00:38:38;35.63;;;20.47;;
11203;SDS011;5659;49.408;11.116;2023-02-15T00:41:05;34.50;;;21.30;;
11203;SDS011;5659;49.408;11.116;2023-02-15T00:43:32;36.07;;;20.60;;
11203;SDS011;5659;49.408;11.116;2023-02-15T00:45:58;36.73;;;20.47;;
11203;SDS011;5659;49.408;11.116;2023-02-15T00:48:24;33.70;;;20.50;;
11203;SDS011;5659;49.408;11.116;2023-02-15T00:51:00;32.53;;;19.40;;
11203;SDS011;5659;49.408;11.116;2023-02-15T00:53:26;32.77;;;20.83;;
11203;SDS011;5659;49.408;11.116;2023-02-15T00:55:53;32.10;;;20.00;;
11203;SDS011;5659;49.408;11.116;2023-02-15T00:58:19;44.70;;;19.80;;
11203;SDS011;5659;49.408;11.116;2023-02-15T01:00:45;30.17;;;18.80;;
11203;SDS011;5659;49.408;11.116;2023-02-15T01:03:12;34.30;;;19.33;;
11203;SDS011;5659;49.408;11.116;2023-02-15T01:05:38;34.03;;;20.37;;
11203;SDS011;5659;49.408;11.116;2023-02-15T01:08:04;32.00;;;19.83;;
11203;SDS011;5659;49.408;11.116;2023-02-15T01:10:30;35.97;;;20.77;;
11203;SDS011;5659;49.408;11.116;2023-02-15T01:12:56;33.33;;;19.80;;
11203;SDS011;5659;49.408;11.116;2023-02-15T01:15:23;32.57;;;19.50;;
11203;SDS011;5659;49.408;11.116;2023-02-15T01:17:49;36.40;;;19.17;;
11203;SDS011;5659;49.408;11.116;2023-02-15T01:20:22;44.83;;;20.30;;
11203;SDS011;5659;49.408;11.116;2023-02-15T01:22:48;46.73;;;20.90;;
11203;SDS011;5659;49.408;11.116;2023-02-15T01:25:18;42.97;;;22.53;;
11203;SDS011;5659;49.408;11.116;2023-02-15T01:27:44;35.13;;;21.73;;
11203;SDS011;5659;49.408;11.116;2023-02-15T01:30:11;43.43;;;21.83;;
11203;SDS011;5659;49.408;11.116;2023-02-15T01:32:37;39.43;;;21.03;;
11203;SDS011;5659;49.408;11.116;2023-02-15T01:35:03;35.60;;;21.53;;
11203;SDS011;5659;49.408;11.116;2023-02-15T01:37:32;34.93;;;21.43;;
11203;SDS011;5659;49.408;11.116;2023-02-15T01:39:58;32.83;;;20.37;;
11203;SDS011;5659;49.408;11.116;2023-02-15T01:42:25;37.33;;;20.93;;
11203;SDS011;5659;49.408;11.116;2023-02-15T01:47:37;46.60;;;20.77;;
11203;SDS011;5659;49.408;11.116;2023-02-15T01:50:15;36.50;;;20.13;;
11203;SDS011;5659;49.408;11.116;2023-02-15T01:52:44;36.67;;;20.10;;
11203;SDS011;5659;49.408;11.116;2023-02-15T01:55:11;34.77;;;20.47;;
11203;SDS011;5659;49.408;11.116;2023-02-15T01:57:38;36.57;;;20.77;;
11203;SDS011;5659;49.408;11.116;2023-02-15T02:00:04;34.47;;;20.33;;
11203;SDS011;5659;49.408;11.116;2023-02-15T02:02:31;34.43;;;19.67;;
11203;SDS011;5659;49.408;11.116;2023-02-15T02:05:01;38.73;;;19.57;;
11203;SDS011;5659;49.408;11.116;2023-02-15T02:07:31;41.87;;;21.07;;
11203;SDS011;5659;49.408;11.116;2023-02-15T02:09:58;50.77;;;20.00;;
11203;SDS011;5659;49.408;11.116;2023-02-15T02:12:24;42.63;;;18.90;;
11203;SDS011;5659;49.408;11.116;2023-02-15T02:14:50;41.50;;;20.40;;
11203;SDS011;5659;49.408;11.116;2023-02-15T02:28:01;44.60;;;22.33;;
11203;SDS011;5659;49.408;11.116;2023-02-15T02:33:31;37.90;;;21.30;;
11203;SDS011;5659;49.408;11.116;2023-02-15T02:35:57;43.23;;;21.50;;
11203;SDS011;5659;49.408;11.116;2023-02-15T02:41:04;52.33;;;20.80;;
11203;SDS011;5659;49.408;11.116;2023-02-15T02:43:45;38.67;;;22.17;;
11203;SDS011;5659;49.408;11.116;2023-02-15T02:46:15;40.23;;;21.43;;
11203;SDS011;5659;49.408;11.116;2023-02-15T02:48:43;36.70;;;20.90;;
11203;SDS011;5659;49.408;11.116;2023-02-15T02:51:09;41.23;;;21.33;;
11203;SDS011;5659;49.408;11.116;2023-02-15T02:53:35;40.63;;;22.30;;
11203;SDS011;5659;49.408;11.116;2023-02-15T02:56:06;39.27;;;21.17;;
11203;SDS011;5659;49.408;11.116;2023-02-15T02:58:37;37.23;;;21.30;;
11203;SDS011;5659;49.408;11.116;2023-02-15T03:01:09;36.20;;;20.07;;
11203;SDS011;5659;49.408;11.116;2023-02-15T03:06:12;35.37;;;20.80;;
11203;SDS011;5659;49.408;11.116;2023-02-15T03:08:45;33.93;;;19.93;;
11203;SDS011;5659;49.408;11.116;2023-02-15T03:11:13;34.13;;;19.43;;
11203;SDS011;5659;49.408;11.116;2023-02-15T03:13:39;34.83;;;20.00;;
11203;SDS011;5659;49.408;11.116;2023-02-15T03:16:05;34.27;;;19.47;;
11203;SDS011;5659;49.408;11.116;2023-02-15T03:18:58;32.17;;;20.03;;
11203;SDS011;5659;49.408;11.116;2023-02-15T03:21:33;33.07;;;20.40;;
11203;SDS011;5659;49.408;11.116;2023-02-15T03:24:02;30.17;;;18.33;;
11203;SDS011;5659;49.408;11.116;2023-02-15T03:26:30;32.47;;;18.13;;
11203;SDS011;5659;49.408;11.116;2023-02-15T03:28:56;30.00;;;17.87;;
11203;SDS011;5659;49.408;11.116;2023-02-15T03:31:24;26.83;;;17.27;;
11203;SDS011;5659;49.408;11.116;2023-02-15T03:33:56;26.27;;;16.53;;
11203;SDS011;5659;49.408;11.116;2023-02-15T03:36:26;23.60;;;15.13;;
11203;SDS011;5659;49.408;11.116;2023-02-15T03:38:59;28.27;;;15.73;;
11203;SDS011;5659;49.408;11.116;2023-02-15T03:41:29;23.27;;;14.90;;
11203;SDS011;5659;49.408;11.116;2023-02-15T03:43:59;25.70;;;15.17;;
11203;SDS011;5659;49.408;11.116;2023-02-15T03:46:37;23.43;;;15.20;;
11203;SDS011;5659;49.408;11.116;2023-02-15T03:49:14;22.67;;;14.90;;
11203;SDS011;5659;49.408;11.116;2023-02-15T03:51:42;22.80;;;14.53;;
11203;SDS011;5659;49.408;11.116;2023-02-15T03:54:13;22.70;;;14.93;;
11203;SDS011;5659;49.408;11.116;2023-02-15T03:56:59;22.43;;;15.13;;
11203;SDS011;5659;49.408;11.116;2023-02-15T03:59:44;24.47;;;15.70;;
11203;SDS011;5659;49.408;11.116;2023-02-15T04:02:31;24.70;;;15.87;;
11203;SDS011;5659;49.408;11.116;2023-02-15T04:05:01;24.83;;;16.07;;
11203;SDS011;5659;49.408;11.116;2023-02-15T04:07:26;25.13;;;16.50;;
11203;SDS011;5659;49.408;11.116;2023-02-15T04:09:52;26.53;;;17.17;;
11203;SDS011;5659;49.408;11.116;2023-02-15T04:12:37;27.37;;;16.50;;
11203;SDS011;5659;49.408;11.116;2023-02-15T04:15:03;24.10;;;16.37;;
11203;SDS011;5659;49.408;11.116;2023-02-15T04:17:48;24.80;;;17.10;;
11203;SDS011;5659;49.408;11.116;2023-02-15T04:20:13;29.00;;;17.97;;
11203;SDS011;5659;49.408;11.116;2023-02-15T04:22:58;27.87;;;17.30;;
11203;SDS011;5659;49.408;11.116;2023-02-15T04:25:42;24.30;;;16.93;;
11203;SDS011;5659;49.408;11.116;2023-02-15T04:28:08;26.73;;;17.37;;
11203;SDS011;5659;49.408;11.116;2023-02-15T04:30:34;27.07;;;17.53;;
11203;SDS011;5659;49.408;11.116;2023-02-15T04:33:00;25.60;;;16.77;;
11203;SDS011;5659;49.408;11.116;2023-02-15T04:35:26;29.40;;;18.33;;
11203;SDS011;5659;49.408;11.116;2023-02-15T04:37:52;26.33;;;17.10;;
11203;SDS011;5659;49.408;11.116;2023-02-15T04:40:18;27.07;;;17.17;;
11203;SDS011;5659;49.408;11.116;2023-02-15T04:42:46;26.90;;;17.10;;
11203;SDS011;5659;49.408;11.116;2023-02-15T04:45:12;28.77;;;18.37;;
11203;SDS011;5659;49.408;11.116;2023-02-15T04:47:38;26.00;;;17.83;;
11203;SDS011;5659;49.408;11.116;2023-02-15T04:50:04;26.23;;;17.43;;
11203;SDS011;5659;49.408;11.116;2023-02-15T04:52:31;26.47;;;18.37;;
11203;SDS011;5659;49.408;11.116;2023-02-15T04:54:57;30.07;;;18.60;;
11203;SDS011;5659;49.408;11.116;2023-02-15T04:57:23;29.53;;;18.63;;
11203;SDS011;5659;49.408;11.116;2023-02-15T04:59:48;28.47;;;18.53;;
11203;SDS011;5659;49.408;11.116;2023-02-15T05:02:14;28.60;;;18.37;;
11203;SDS011;5659;49.408;11.116;2023-02-15T05:04:40;27.30;;;17.70;;
11203;SDS011;5659;49.408;11.116;2023-02-15T05:07:06;26.67;;;17.77;;
11203;SDS011;5659;49.408;11.116;2023-02-15T05:09:32;29.73;;;18.90;;
11203;SDS011;5659;49.408;11.116;2023-02-15T05:11:58;28.40;;;18.80;;
11203;SDS011;5659;49.408;11.116;2023-02-15T05:14:24;28.53;;;18.77;;
11203;SDS011;5659;49.408;11.116;2023-02-15T05:16:50;30.03;;;18.97;;
11203;SDS011;5659;49.408;11.116;2023-02-15T05:19:18;26.97;;;17.80;;
11203;SDS011;5659;49.408;11.116;2023-02-15T05:21:44;28.57;;;18.00;;
11203;SDS011;5659;49.408;11.116;2023-02-15T05:24:10;29.87;;;18.97;;
11203;SDS011;5659;49.408;11.116;2023-02-15T05:26:55;29.07;;;19.77;;
11203;SDS011;5659;49.408;11.116;2023-02-15T05:29:39;31.47;;;19.87;;
11203;SDS011;5659;49.408;11.116;2023-02-15T05:32:05;35.03;;;20.23;;
11203;SDS011;5659;49.408;11.116;2023-02-15T05:34:31;34.10;;;19.90;;
11203;SDS011;5659;49.408;11.116;2023-02-15T05:36:57;31.37;;;20.40;;
11203;SDS011;5659;49.408;11.116;2023-02-15T05:39:23;30.57;;;19.67;;
11203;SDS011;5659;49.408;11.116;2023-02-15T05:41:49;31.80;;;21.00;;
11203;SDS011;5659;49.408;11.116;2023-02-15T05:44:15;30.57;;;19.30;;
11203;SDS011;5659;49.408;11.116;2023-02-15T05:46:41;30.73;;;20.03;;
11203;SDS011;5659;49.408;11.116;2023-02-15T05:49:07;33.60;;;21.17;;
11203;SDS011;5659;49.408;11.116;2023-02-15T05:51:33;36.40;;;19.40;;
11203;SDS011;5659;49.408;11.116;2023-02-15T05:53:59;37.17;;;18.77;;
11203;SDS011;5659;49.408;11.116;2023-02-15T05:56:25;31.97;;;19.70;;
11203;SDS011;5659;49.408;11.116;2023-02-15T05:58:52;33.87;;;18.87;;
11203;SDS011;5659;49.408;11.116;2023-02-15T06:01:19;28.80;;;18.20;;
11203;SDS011;5659;49.408;11.116;2023-02-15T06:03:47;33.17;;;19.23;;
11203;SDS011;5659;49.408;11.116;2023-02-15T06:06:13;35.90;;;21.03;;
11203;SDS011;5659;49.408;11.116;2023-02-15T06:08:39;32.97;;;20.23;;
11203;SDS011;5659;49.408;11.116;2023-02-15T06:11:06;33.30;;;21.50;;
11203;SDS011;5659;49.408;11.116;2023-02-15T06:13:32;32.93;;;20.67;;
11203;SDS011;5659;49.408;11.116;2023-02-15T06:15:58;33.50;;;20.87;;
11203;SDS011;5659;49.408;11.116;2023-02-15T06:18:24;33.70;;;21.80;;
11203;SDS011;5659;49.408;11.116;2023-02-15T06:20:50;37.03;;;21.90;;
11203;SDS011;5659;49.408;11.116;2023-02-15T06:23:16;33.50;;;21.47;;
11203;SDS011;5659;49.408;11.116;2023-02-15T06:25:43;35.43;;;22.00;;
11203;SDS011;5659;49.408;11.116;2023-02-15T06:28:10;34.83;;;22.53;;
11203;SDS011;5659;49.408;11.116;2023-02-15T06:30:35;33.00;;;21.00;;
11203;SDS011;5659;49.408;11.116;2023-02-15T06:33:02;32.97;;;21.30;;
11203;SDS011;5659;49.408;11.116;2023-02-15T06:35:28;34.67;;;21.33;;
11203;SDS011;5659;49.408;11.116;2023-02-15T06:37:54;34.27;;;20.17;;
11203;SDS011;5659;49.408;11.116;2023-02-15T06:40:20;34.13;;;21.03;;
11203;SDS011;5659;49.408;11.116;2023-02-15T06:42:46;34.97;;;20.73;;
11203;SDS011;5659;49.408;11.116;2023-02-15T06:45:12;34.70;;;20.47;;
11203;SDS011;5659;49.408;11.116;2023-02-15T06:47:37;32.87;;;21.43;;
11203;SDS011;5659;49.408;11.116;2023-02-15T06:50:04;33.13;;;20.90;;
11203;SDS011;5659;49.408;11.116;2023-02-15T06:52:30;33.10;;;21.30;;
11203;SDS011;5659;49.408;11.116;2023-02-15T06:54:56;30.17;;;19.87;;
11203;SDS011;5659;49.408;11.116;2023-02-15T06:57:22;33.47;;;20.03;;
11203;SDS011;5659;49.408;11.116;2023-02-15T06:59:48;32.97;;;21.37;;
11203;SDS011;5659;49.408;11.116;2023-02-15T07:02:14;34.13;;;20.47;;
11203;SDS011;5659;49.408;11.116;2023-02-15T07:04:40;33.97;;;20.60;;
11203;SDS011;5659;49.408;11.116;2023-02-15T07:07:10;32.77;;;19.97;;
11203;SDS011;5659;49.408;11.116;2023-02-15T07:09:36;36.37;;;20.40;;
11203;SDS011;5659;49.408;11.116;2023-02-15T07:12:02;33.80;;;20.80;;
11203;SDS011;5659;49.408;11.116;2023-02-15T07:14:46;31.60;;;19.80;;
11203;SDS011;5659;49.408;11.116;2023-02-15T07:17:12;33.20;;;20.13;;
11203;SDS011;5659;49.408;11.116;2023-02-15T07:19:38;36.07;;;20.77;;
11203;SDS011;5659;49.408;11.116;2023-02-15T07:22:04;33.30;;;20.37;;
11203;SDS011;5659;49.408;11.116;2023-02-15T07:24:30;33.17;;;19.97;;
11203;SDS011;5659;49.408;11.116;2023-02-15T07:26:57;29.83;;;19.17;;
11203;SDS011;5659;49.408;11.116;2023-02-15T07:29:23;33.90;;;20.00;;
11203;SDS011;5659;49.408;11.116;2023-02-15T07:31:49;34.17;;;19.93;;
11203;SDS011;5659;49.408;11.116;2023-02-15T07:34:15;33.50;;;19.90;;
11203;SDS011;5659;49.408;11.116;2023-02-15T07:36:41;31.90;;;19.37;;
11203;SDS011;5659;49.408;11.116;2023-02-15T07:39:09;32.43;;;19.47;;
11203;SDS011;5659;49.408;11.116;2023-02-15T07:41:35;35.40;;;19.60;;
11203;SDS011;5659;49.408;11.116;2023-02-15T07:44:01;39.23;;;20.93;;
11203;SDS011;5659;49.408;11.116;2023-02-15T07:46:27;35.10;;;21.03;;
11203;SDS011;5659;49.408;11.116;2023-02-15T07:48:53;36.10;;;21.07;;
11203;SDS011;5659;49.408;11.116;2023-02-15T07:51:19;33.93;;;20.00;;
11203;SDS011;5659;49.408;11.116;2023-02-15T07:53:45;33.90;;;20.63;;
11203;SDS011;5659;49.408;11.116;2023-02-15T07:56:12;33.17;;;19.03;;
11203;SDS011;5659;49.408;11.116;2023-02-15T07:58:38;34.13;;;20.67;;
11203;SDS011;5659;49.408;11.116;2023-02-15T08:01:21;34.30;;;20.77;;
11203;SDS011;5659;49.408;11.116;2023-02-15T08:03:48;36.83;;;20.57;;
11203;SDS011;5659;49.408;11.116;2023-02-15T08:06:14;36.03;;;19.83;;
11203;SDS011;5659;49.408;11.116;2023-02-15T08:08:40;32.87;;;19.43;;
11203;SDS011;5659;49.408;11.116;2023-02-15T08:11:17;31.83;;;19.50;;
11203;SDS011;5659;49.408;11.116;2023-02-15T08:16:42;31.27;;;18.23;;
11203;SDS011;5659;49.408;11.116;2023-02-15T08:19:09;33.17;;;18.97;;
11203;SDS011;5659;49.408;11.116;2023-02-15T08:21:36;33.40;;;18.83;;
11203;SDS011;5659;49.408;11.116;2023-02-15T08:24:03;30.57;;;18.20;;
11203;SDS011;5659;49.408;11.116;2023-02-15T08:26:29;34.07;;;17.87;;
11203;SDS011;5659;49.408;11.116;2023-02-15T08:28:56;29.57;;;17.77;;
11203;SDS011;5659;49.408;11.116;2023-02-15T08:31:22;30.17;;;17.20;;
11203;SDS011;5659;49.408;11.116;2023-02-15T08:33:48;30.77;;;18.37;;
11203;SDS011;5659;49.408;11.116;2023-02-15T08:36:16;32.77;;;17.27;;
11203;SDS011;5659;49.408;11.116;2023-02-15T08:38:42;32.80;;;18.03;;
11203;SDS011;5659;49.408;11.116;2023-02-15T08:41:12;28.73;;;17.53;;
11203;SDS011;5659;49.408;11.116;2023-02-15T08:43:38;28.57;;;17.23;;
11203;SDS011;5659;49.408;11.116;2023-02-15T08:46:05;27.60;;;16.27;;
11203;SDS011;5659;49.408;11.116;2023-02-15T08:48:32;26.67;;;17.00;;
11203;SDS011;5659;49.408;11.116;2023-02-15T08:50:58;29.70;;;17.67;;
11203;SDS011;5659;49.408;11.116;2023-02-15T08:53:24;28.40;;;17.57;;
11203;SDS011;5659;49.408;11.116;2023-02-15T08:55:56;25.70;;;16.10;;
11203;SDS011;5659;49.408;11.116;2023-02-15T08:58:23;27.13;;;17.27;;
11203;SDS011;5659;49.408;11.116;2023-02-15T09:00:49;24.10;;;16.37;;
11203;SDS011;5659;49.408;11.116;2023-02-15T09:03:15;26.27;;;16.17;;
11203;SDS011;5659;49.408;11.116;2023-02-15T09:05:41;24.10;;;15.20;;
11203;SDS011;5659;49.408;11.116;2023-02-15T09:08:07;26.40;;;15.80;;
11203;SDS011;5659;49.408;11.116;2023-02-15T09:10:33;25.03;;;15.87;;
11203;SDS011;5659;49.408;11.116;2023-02-15T09:12:59;25.63;;;15.33;;
11203;SDS011;5659;49.408;11.116;2023-02-15T09:15:25;24.33;;;15.27;;
11203;SDS011;5659;49.408;11.116;2023-02-15T09:17:51;24.63;;;15.10;;
11203;SDS011;5659;49.408;11.116;2023-02-15T09:20:17;24.30;;;15.23;;
11203;SDS011;5659;49.408;11.116;2023-02-15T09:22:43;24.93;;;15.97;;
11203;SDS011;5659;49.408;11.116;2023-02-15T09:25:09;23.27;;;15.17;;
11203;SDS011;5659;49.408;11.116;2023-02-15T09:27:35;24.47;;;15.30;;
11203;SDS011;5659;49.408;11.116;2023-02-15T09:30:02;26.10;;;14.73;;
11203;SDS011;5659;49.408;11.116;2023-02-15T09:32:28;23.93;;;14.87;;
11203;SDS011;5659;49.408;11.116;2023-02-15T09:34:54;24.43;;;14.63;;
11203;SDS011;5659;49.408;11.116;2023-02-15T09:37:20;22.40;;;14.13;;
11203;SDS011;5659;49.408;11.116;2023-02-15T09:39:46;23.33;;;14.00;;
11203;SDS011;5659;49.408;11.116;2023-02-15T09:50:42;19.93;;;13.47;;
11203;SDS011;5659;49.408;11.116;2023-02-15T09:53:19;20.17;;;12.47;;
11203;SDS011;5659;49.408;11.116;2023-02-15T09:56:06;23.83;;;13.80;;
11203;SDS011;5659;49.408;11.116;2023-02-15T10:06:32;18.80;;;13.40;;
11203;SDS011;5659;49.408;11.116;2023-02-15T10:09:08;20.80;;;13.20;;
11203;SDS011;5659;49.408;11.116;2023-02-15T10:11:50;20.50;;;13.63;;
11203;SDS011;5659;49.408;11.116;2023-02-15T10:17:16;19.93;;;12.83;;
11203;SDS011;5659;49.408;11.116;2023-02-15T10:24:46;19.23;;;13.00;;
11203;SDS011;5659;49.408;11.116;2023-02-15T10:27:18;20.57;;;13.03;;
11203;SDS011;5659;49.408;11.116;2023-02-15T10:32:32;18.97;;;12.60;;
11203;SDS011;5659;49.408;11.116;2023-02-15T10:35:01;23.30;;;13.70;;
11203;SDS011;5659;49.408;11.116;2023-02-15T10:42:40;19.13;;;13.10;;
11203;SDS011;5659;49.408;11.116;2023-02-15T10:58:03;18.40;;;12.87;;
11203;SDS011;5659;49.408;11.116;2023-02-15T11:08:57;16.53;;;11.57;;
11203;SDS011;5659;49.408;11.116;2023-02-15T11:13:53;14.27;;;11.03;;
11203;SDS011;5659;49.408;11.116;2023-02-15T11:16:28;14.70;;;11.00;;
11203;SDS011;5659;49.408;11.116;2023-02-15T11:19:04;15.83;;;10.80;;
11203;SDS011;5659;49.408;11.116;2023-02-15T11:21:33;14.73;;;10.70;;
11203;SDS011;5659;49.408;11.116;2023-02-15T11:24:14;14.80;;;11.17;;
11203;SDS011;5659;49.408;11.116;2023-02-15T11:26:44;14.57;;;10.57;;
11203;SDS011;5659;49.408;11.116;2023-02-15T11:29:13;15.17;;;10.20;;
11203;SDS011;5659;49.408;11.116;2023-02-15T11:31:51;13.73;;;10.87;;
11203;SDS011;5659;49.408;11.116;2023-02-15T11:36:45;14.90;;;10.37;;
11203;SDS011;5659;49.408;11.116;2023-02-15T11:39:14;11.67;;;9.50;;
11203;SDS011;5659;49.408;11.116;2023-02-15T11:41:41;14.87;;;10.43;;
11203;SDS011;5659;49.408;11.116;2023-02-15T11:46:42;14.17;;;10.53;;
11203;SDS011;5659;49.408;11.116;2023-02-15T11:49:12;13.77;;;11.27;;
11203;SDS011;5659;49.408;11.116;2023-02-15T11:51:46;13.80;;;10.77;;
11203;SDS011;5659;49.408;11.116;2023-02-15T11:54:12;16.83;;;10.87;;
11203;SDS011;5659;49.408;11.116;2023-02-15T11:56:38;13.37;;;10.90;;
11203;SDS011;5659;49.408;11.116;2023-02-15T11:59:11;15.03;;;11.90;;
11203;SDS011;5659;49.408;11.116;2023-02-15T12:01:42;14.80;;;10.97;;
11203;SDS011;5659;49.408;11.116;2023-02-15T12:04:13;16.87;;;12.53;;
11203;SDS011;5659;49.408;11.116;2023-02-15T12:07:02;17.63;;;12.47;;
11203;SDS011;5659;49.408;11.116;2023-02-15T12:09:36;18.10;;;13.00;;
11203;SDS011;5659;49.408;11.116;2023-02-15T12:12:19;17.33;;;13.43;;
11203;SDS011;5659;49.408;11.116;2023-02-15T12:14:47;17.90;;;12.87;;
11203;SDS011;5659;49.408;11.116;2023-02-15T12:17:13;17.17;;;13.27;;
11203;SDS011;5659;49.408;11.116;2023-02-15T12:19:41;17.93;;;12.93;;
11203;SDS011;5659;49.408;11.116;2023-02-15T12:24:54;15.77;;;12.30;;
11203;SDS011;5659;49.408;11.116;2023-02-15T12:27:24;16.50;;;13.13;;
11203;SDS011;5659;49.408;11.116;2023-02-15T12:29:51;15.40;;;11.50;;
11203;SDS011;5659;49.408;11.116;2023-02-15T12:32:23;16.15;;;12.63;;
11203;SDS011;5659;49.408;11.116;2023-02-15T12:34:50;15.68;;;12.80;;
11203;SDS011;5659;49.408;11.116;2023-02-15T12:37:27;16.13;;;12.43;;
11203;SDS011;5659;49.408;11.116;2023-02-15T12:39:58;14.75;;;12.25;;
11203;SDS011;5659;49.408;11.116;2023-02-15T12:42:25;15.82;;;12.43;;
11203;SDS011;5659;49.408;11.116;2023-02-15T12:47:19;18.42;;;14.55;;
11203;SDS011;5659;49.408;11.116;2023-02-15T12:50:07;17.15;;;14.02;;
11203;SDS011;5659;49.408;11.116;2023-02-15T12:52:36;16.80;;;13.57;;
11203;SDS011;5659;49.408;11.116;2023-02-15T12:55:11;16.17;;;13.30;;
11203;SDS011;5659;49.408;11.116;2023-02-15T12:57:43;17.20;;;13.68;;
11203;SDS011;5659;49.408;11.116;2023-02-15T13:02:47;16.90;;;13.52;;
11203;SDS011;5659;49.408;11.116;2023-02-15T13:08:00;16.83;;;13.48;;
11203;SDS011;5659;49.408;11.116;2023-02-15T13:10:41;15.75;;;13.57;;
11203;SDS011;5659;49.408;11.116;2023-02-15T13:13:09;16.90;;;13.77;;
11203;SDS011;5659;49.408;11.116;2023-02-15T13:15:36;15.75;;;14.05;;
11203;SDS011;5659;49.408;11.116;2023-02-15T13:18:04;16.35;;;14.25;;
11203;SDS011;5659;49.408;11.116;2023-02-15T13:20:31;17.58;;;14.43;;
11203;SDS011;5659;49.408;11.116;2023-02-15T13:23:03;16.58;;;14.77;;
11203;SDS011;5659;49.408;11.116;2023-02-15T13:25:32;17.52;;;15.00;;
11203;SDS011;5659;49.408;11.116;2023-02-15T13:28:01;16.98;;;14.15;;
11203;SDS011;5659;49.408;11.116;2023-02-15T13:31:01;17.38;;;15.20;;
11203;SDS011;5659;49.408;11.116;2023-02-15T13:33:30;17.23;;;15.23;;
11203;SDS011;5659;49.408;11.116;2023-02-15T13:36:15;17.10;;;15.30;;
11203;SDS011;5659;49.408;11.116;2023-02-15T13:41:31;17.20;;;15.10;;
11203;SDS011;5659;49.408;11.116;2023-02-15T13:59:46;18.52;;;16.52;;
11203;SDS011;5659;49.408;11.116;2023-02-15T14:02:34;19.45;;;15.85;;
11203;SDS011;5659;49.408;11.116;2023-02-15T14:05:09;18.60;;;16.42;;
11203;SDS011;5659;49.408;11.116;2023-02-15T14:15:26;19.02;;;16.42;;
11203;SDS011;5659;49.408;11.116;2023-02-15T14:20:41;20.70;;;17.00;;
11203;SDS011;5659;49.408;11.116;2023-02-15T14:23:14;19.33;;;16.23;;
11203;SDS011;5659;49.408;11.116;2023-02-15T14:25:45;19.38;;;16.80;;
11203;SDS011;5659;49.408;11.116;2023-02-15T14:30:58;22.30;;;17.33;;
11203;SDS011;5659;49.408;11.116;2023-02-15T14:36:19;24.42;;;18.75;;
11203;SDS011;5659;49.408;11.116;2023-02-15T14:44:48;21.65;;;18.48;;
11203;SDS011;5659;49.408;11.116;2023-02-15T14:46:56;22.77;;;18.67;;
11203;SDS011;5659;49.408;11.116;2023-02-15T14:49:27;22.95;;;19.67;;
11203;SDS011;5659;49.408;11.116;2023-02-15T14:51:56;23.17;;;19.02;;
11203;SDS011;5659;49.408;11.116;2023-02-15T14:59:36;23.88;;;19.50;;
11203;SDS011;5659;49.408;11.116;2023-02-15T15:04:37;26.02;;;20.67;;
11203;SDS011;5659;49.408;11.116;2023-02-15T15:07:08;26.23;;;21.23;;
11203;SDS011;5659;49.408;11.116;2023-02-15T15:09:35;25.92;;;20.67;;
11203;SDS011;5659;49.408;11.116;2023-02-15T15:14:47;23.67;;;18.65;;
11203;SDS011;5659;49.408;11.116;2023-02-15T15:18:00;24.75;;;18.63;;
11203;SDS011;5659;49.408;11.116;2023-02-15T15:22:29;24.65;;;19.88;;
11203;SDS011;5659;49.408;11.116;2023-02-15T15:24:59;25.30;;;19.23;;
11203;SDS011;5659;49.408;11.116;2023-02-15T15:27:42;25.52;;;20.98;;
11203;SDS011;5659;49.408;11.116;2023-02-15T15:32:43;29.08;;;21.85;;
11203;SDS011;5659;49.408;11.116;2023-02-15T15:35:15;30.08;;;22.55;;
11203;SDS011;5659;49.408;11.116;2023-02-15T15:38:02;32.00;;;23.00;;
11203;SDS011;5659;49.408;11.116;2023-02-15T15:40:41;30.53;;;21.77;;
11203;SDS011;5659;49.408;11.116;2023-02-15T15:43:24;36.10;;;24.30;;
11203;SDS011;5659;49.408;11.116;2023-02-15T15:48:30;32.50;;;23.10;;
11203;SDS011;5659;49.408;11.116;2023-02-15T15:53:40;35.20;;;25.00;;
11203;SDS011;5659;49.408;11.116;2023-02-15T15:56:09;35.13;;;24.40;;
11203;SDS011;5659;49.408;11.116;2023-02-15T15:58:40;35.80;;;25.33;;
11203;SDS011;5659;49.408;11.116;2023-02-15T16:01:08;34.70;;;25.33;;
11203;SDS011;5659;49.408;11.116;2023-02-15T16:03:36;39.07;;;26.33;;
11203;SDS011;5659;49.408;11.116;2023-02-15T16:06:02;38.57;;;27.47;;
11203;SDS011;5659;49.408;11.116;2023-02-15T16:08:33;37.50;;;26.63;;
11203;SDS011;5659;49.408;11.116;2023-02-15T16:11:10;39.47;;;26.30;;
11203;SDS011;5659;49.408;11.116;2023-02-15T16:13:36;40.37;;;27.60;;
11203;SDS011;5659;49.408;11.116;2023-02-15T16:16:05;42.13;;;27.30;;
11203;SDS011;5659;49.408;11.116;2023-02-15T16:18:31;42.03;;;28.07;;
11203;SDS011;5659;49.408;11.116;2023-02-15T16:20:58;42.33;;;28.83;;
11203;SDS011;5659;49.408;11.116;2023-02-15T16:28:17;46.40;;;31.23;;
11203;SDS011;5659;49.408;11.116;2023-02-15T16:30:45;48.43;;;32.17;;
11203;SDS011;5659;49.408;11.116;2023-02-15T16:33:15;49.57;;;32.73;;
11203;SDS011;5659;49.408;11.116;2023-02-15T16:36:02;54.40;;;34.27;;
11203;SDS011;5659;49.408;11.116;2023-02-15T16:38:44;52.30;;;33.90;;
11203;SDS011;5659;49.408;11.116;2023-02-15T16:41:25;53.07;;;33.60;;
11203;SDS011;5659;49.408;11.116;2023-02-15T16:43:52;59.77;;;35.93;;
11203;SDS011;5659;49.408;11.116;2023-02-15T16:46:30;60.90;;;40.13;;
11203;SDS011;5659;49.408;11.116;2023-02-15T16:48:57;61.00;;;37.10;;
11203;SDS011;5659;49.408;11.116;2023-02-15T16:51:27;65.23;;;38.67;;
11203;SDS011;5659;49.408;11.116;2023-02-15T16:53:53;57.70;;;36.07;;
11203;SDS011;5659;49.408;11.116;2023-02-15T16:56:23;56.20;;;33.90;;
11203;SDS011;5659;49.408;11.116;2023-02-15T16:58:50;55.60;;;33.93;;
11203;SDS011;5659;49.408;11.116;2023-02-15T17:01:17;55.43;;;34.67;;
11203;SDS011;5659;49.408;11.116;2023-02-15T17:03:47;57.50;;;34.70;;
11203;SDS011;5659;49.408;11.116;2023-02-15T17:06:18;65.97;;;37.37;;
11203;SDS011;5659;49.408;11.116;2023-02-15T17:08:45;57.30;;;35.47;;
11203;SDS011;5659;49.408;11.116;2023-02-15T17:13:38;62.30;;;36.33;;
11203;SDS011;5659;49.408;11.116;2023-02-15T17:18:34;60.13;;;33.83;;
11203;SDS011;5659;49.408;11.116;2023-02-15T17:21:16;60.17;;;35.50;;